sensor_id;sensor_type;location;lat;lon;timestamp;pressure;altitude;pressure_sealevel;temperature;humidity
23361;BME280;11852;50.082;18.554;2022-08-01T00:01:01;98403.0;;;15.7;88.0
23361;BME280;11852;50.082;18.554;2022-08-01T00:02:11;98398.5;;;15.66;87.91
23361;BME280;11852;50.082;18.554;2022-08-01T00:03:15;98399.0;;;15.66;87.91
23361;BME280;11852;50.082;18.554;2022-08-01T00:04:20;98398.5;;;15.66;87.91
23361;BME280;11852;50.082;18.554;2022-08-01T00:05:27;98396.0;;;15.63;87.71
23361;BME280;11852;50.082;18.554;2022-08-01T00:06:46;98396.0;;;15.6;87.72
23361;BME280;11852;50.082;18.554;2022-08-01T00:07:48;98397.0;;;15.57;87.99
23361;BME280;11852;50.082;18.554;2022-08-01T00:08:53;98393.5;;;15.57;88.06
23361;BME280;11852;50.082;18.554;2022-08-01T00:09:57;98392.5;;;15.56;88.06
23361;BME280;11852;50.082;18.554;2022-08-01T00:11:02;98395.0;;;15.56;88.06
23361;BME280;11852;50.082;18.554;2022-08-01T00:12:07;98393.5;;;15.55;88.06
23361;BME280;11852;50.082;18.554;2022-08-01T00:13:11;98395.0;;;15.55;88.06
23361;BME280;11852;50.082;18.554;2022-08-01T00:14:16;98393.5;;;15.54;88.06
23361;BME280;11852;50.082;18.554;2022-08-01T00:15:21;98394.5;;;15.53;88.06
23361;BME280;11852;50.082;18.554;2022-08-01T00:16:27;98397.0;;;15.65;88.08
23361;BME280;11852;50.082;18.554;2022-08-01T00:17:32;98397.5;;;15.67;88.07
23361;BME280;11852;50.082;18.554;2022-08-01T00:18:37;98393.5;;;15.65;88.13
23361;BME280;11852;50.082;18.554;2022-08-01T00:19:41;98394.99;;;15.61;88.21
23361;BME280;11852;50.082;18.554;2022-08-01T00:20:47;98391.5;;;15.58;88.13
23361;BME280;11852;50.082;18.554;2022-08-01T00:21:51;98391.0;;;15.56;88.0
23361;BME280;11852;50.082;18.554;2022-08-01T00:22:58;98391.5;;;15.53;87.95
23361;BME280;11852;50.082;18.554;2022-08-01T00:24:00;98388.5;;;15.52;87.93
23361;BME280;11852;50.082;18.554;2022-08-01T00:25:05;98387.5;;;15.51;87.94
23361;BME280;11852;50.082;18.554;2022-08-01T00:26:11;98388.0;;;15.51;87.97
23361;BME280;11852;50.082;18.554;2022-08-01T00:27:16;98386.0;;;15.49;88.0
23361;BME280;11852;50.082;18.554;2022-08-01T00:28:21;98385.5;;;15.49;88.0
23361;BME280;11852;50.082;18.554;2022-08-01T00:29:25;98385.5;;;15.43;88.36
23361;BME280;11852;50.082;18.554;2022-08-01T00:30:31;98386.0;;;15.47;88.29
23361;BME280;11852;50.082;18.554;2022-08-01T00:31:35;98387.0;;;15.39;88.51
23361;BME280;11852;50.082;18.554;2022-08-01T00:32:41;98385.5;;;15.39;88.51
23361;BME280;11852;50.082;18.554;2022-08-01T00:33:46;98386.5;;;15.39;88.51
23361;BME280;11852;50.082;18.554;2022-08-01T00:34:50;98387.0;;;15.39;88.51
23361;BME280;11852;50.082;18.554;2022-08-01T00:35:55;98389.0;;;15.39;88.51
23361;BME280;11852;50.082;18.554;2022-08-01T00:37:00;98388.5;;;15.39;88.51
23361;BME280;11852;50.082;18.554;2022-08-01T00:38:06;98388.5;;;15.39;88.51
23361;BME280;11852;50.082;18.554;2022-08-01T00:39:10;98388.5;;;15.39;88.51
23361;BME280;11852;50.082;18.554;2022-08-01T00:40:15;98387.5;;;15.5;88.22
23361;BME280;11852;50.082;18.554;2022-08-01T00:41:20;98388.0;;;15.53;88.07
23361;BME280;11852;50.082;18.554;2022-08-01T00:42:25;98385.0;;;15.48;88.24
23361;BME280;11852;50.082;18.554;2022-08-01T00:43:30;98385.0;;;15.42;88.42
23361;BME280;11852;50.082;18.554;2022-08-01T00:44:35;98385.5;;;15.44;88.28
23361;BME280;11852;50.082;18.554;2022-08-01T00:45:39;98389.0;;;15.45;88.29
23361;BME280;11852;50.082;18.554;2022-08-01T00:46:45;98389.0;;;15.45;88.29
23361;BME280;11852;50.082;18.554;2022-08-01T00:47:55;98390.5;;;15.45;88.29
23361;BME280;11852;50.082;18.554;2022-08-01T00:49:00;98389.5;;;15.45;88.29
23361;BME280;11852;50.082;18.554;2022-08-01T00:50:04;98391.0;;;15.45;88.29
23361;BME280;11852;50.082;18.554;2022-08-01T00:51:07;98386.5;;;15.5;87.97
23361;BME280;11852;50.082;18.554;2022-08-01T00:52:12;98388.5;;;15.52;87.88
23361;BME280;11852;50.082;18.554;2022-08-01T00:53:18;98384.0;;;15.51;88.05
23361;BME280;11852;50.082;18.554;2022-08-01T00:54:23;98384.5;;;15.51;88.05
23361;BME280;11852;50.082;18.554;2022-08-01T00:55:27;98382.99;;;15.49;88.05
23361;BME280;11852;50.082;18.554;2022-08-01T00:56:32;98381.0;;;15.47;87.68
23361;BME280;11852;50.082;18.554;2022-08-01T00:57:37;98378.0;;;15.43;87.62
23361;BME280;11852;50.082;18.554;2022-08-01T00:58:41;98379.0;;;15.37;87.78
23361;BME280;11852;50.082;18.554;2022-08-01T00:59:48;98380.01;;;15.32;87.96
23361;BME280;11852;50.082;18.554;2022-08-01T01:00:50;98379.51;;;15.32;87.96
23361;BME280;11852;50.082;18.554;2022-08-01T01:01:55;98379.51;;;15.32;87.96
23361;BME280;11852;50.082;18.554;2022-08-01T01:03:00;98380.5;;;15.32;87.96
23361;BME280;11852;50.082;18.554;2022-08-01T01:04:05;98383.5;;;15.31;87.96
23361;BME280;11852;50.082;18.554;2022-08-01T01:05:12;98383.0;;;15.31;87.96
23361;BME280;11852;50.082;18.554;2022-08-01T01:07:34;98382.0;;;15.31;87.96
23361;BME280;11852;50.082;18.554;2022-08-01T01:08:41;98385.5;;;15.27;88.15
23361;BME280;11852;50.082;18.554;2022-08-01T01:09:52;98386.0;;;15.28;88.06
23361;BME280;11852;50.082;18.554;2022-08-01T01:12:12;98384.0;;;15.22;88.07
23361;BME280;11852;50.082;18.554;2022-08-01T01:13:18;98384.0;;;15.18;88.08
23361;BME280;11852;50.082;18.554;2022-08-01T01:15:30;98384.5;;;15.12;88.36
23361;BME280;11852;50.082;18.554;2022-08-01T01:16:33;98381.01;;;15.1;88.29
23361;BME280;11852;50.082;18.554;2022-08-01T01:18:56;98382.0;;;15.1;88.29
23361;BME280;11852;50.082;18.554;2022-08-01T01:19:59;98382.0;;;15.1;88.29
23361;BME280;11852;50.082;18.554;2022-08-01T01:22:27;98376.5;;;15.1;88.29
23361;BME280;11852;50.082;18.554;2022-08-01T01:23:40;98379.0;;;15.09;88.29
23361;BME280;11852;50.082;18.554;2022-08-01T01:29:32;98371.0;;;14.97;88.52
23361;BME280;11852;50.082;18.554;2022-08-01T01:30:36;98373.0;;;15.02;88.51
23361;BME280;11852;50.082;18.554;2022-08-01T01:31:43;98372.0;;;14.91;88.84
23361;BME280;11852;50.082;18.554;2022-08-01T01:32:47;98375.0;;;14.88;88.96
23361;BME280;11852;50.082;18.554;2022-08-01T01:33:51;98376.5;;;14.92;88.9
23361;BME280;11852;50.082;18.554;2022-08-01T01:34:54;98376.5;;;14.92;88.9
23361;BME280;11852;50.082;18.554;2022-08-01T01:36:00;98375.0;;;14.92;88.9
23361;BME280;11852;50.082;18.554;2022-08-01T01:37:10;98376.5;;;14.92;88.9
23361;BME280;11852;50.082;18.554;2022-08-01T01:38:22;98375.5;;;14.92;88.9
23361;BME280;11852;50.082;18.554;2022-08-01T01:39:28;98374.0;;;14.91;88.9
23361;BME280;11852;50.082;18.554;2022-08-01T01:40:33;98373.5;;;14.91;88.9
23361;BME280;11852;50.082;18.554;2022-08-01T01:41:37;98373.0;;;14.91;88.9
23361;BME280;11852;50.082;18.554;2022-08-01T01:42:42;98372.0;;;14.9;88.9
23361;BME280;11852;50.082;18.554;2022-08-01T01:43:47;98372.5;;;14.9;88.9
23361;BME280;11852;50.082;18.554;2022-08-01T01:44:53;98371.5;;;14.9;88.9
23361;BME280;11852;50.082;18.554;2022-08-01T01:45:57;98371.5;;;14.9;88.9
23361;BME280;11852;50.082;18.554;2022-08-01T01:47:02;98366.5;;;14.89;88.6
23361;BME280;11852;50.082;18.554;2022-08-01T01:48:08;98366.5;;;14.8;88.84
23361;BME280;11852;50.082;18.554;2022-08-01T01:49:13;98369.0;;;14.79;88.86
23361;BME280;11852;50.082;18.554;2022-08-01T01:50:19;98365.5;;;14.75;89.07
23361;BME280;11852;50.082;18.554;2022-08-01T01:51:24;98367.5;;;14.75;89.07
23361;BME280;11852;50.082;18.554;2022-08-01T01:52:28;98368.5;;;14.75;89.07
23361;BME280;11852;50.082;18.554;2022-08-01T01:53:33;98369.5;;;14.75;89.07
23361;BME280;11852;50.082;18.554;2022-08-01T01:54:39;98368.0;;;14.74;89.07
23361;BME280;11852;50.082;18.554;2022-08-01T01:55:43;98369.0;;;14.74;89.07
23361;BME280;11852;50.082;18.554;2022-08-01T01:56:50;98372.5;;;14.87;88.51
23361;BME280;11852;50.082;18.554;2022-08-01T01:57:54;98372.5;;;14.93;88.29
23361;BME280;11852;50.082;18.554;2022-08-01T01:58:59;98371.5;;;14.96;88.35
23361;BME280;11852;50.082;18.554;2022-08-01T02:00:03;98368.5;;;14.96;88.41
23361;BME280;11852;50.082;18.554;2022-08-01T02:01:08;98369.0;;;14.95;88.41
23361;BME280;11852;50.082;18.554;2022-08-01T02:02:13;98370.0;;;14.94;88.15
23361;BME280;11852;50.082;18.554;2022-08-01T02:03:19;98368.0;;;14.94;88.15
23361;BME280;11852;50.082;18.554;2022-08-01T02:04:24;98372.0;;;14.93;88.18
23361;BME280;11852;50.082;18.554;2022-08-01T02:05:28;98369.99;;;14.89;88.37
23361;BME280;11852;50.082;18.554;2022-08-01T02:06:35;98371.0;;;14.85;88.37
23361;BME280;11852;50.082;18.554;2022-08-01T02:07:39;98371.0;;;14.86;88.28
23361;BME280;11852;50.082;18.554;2022-08-01T02:08:44;98373.0;;;14.87;88.2
23361;BME280;11852;50.082;18.554;2022-08-01T02:09:48;98372.5;;;14.89;88.25
23361;BME280;11852;50.082;18.554;2022-08-01T02:10:58;98372.0;;;14.85;88.17
23361;BME280;11852;50.082;18.554;2022-08-01T02:12:03;98370.0;;;14.88;88.16
23361;BME280;11852;50.082;18.554;2022-08-01T02:13:07;98370.0;;;14.88;88.16
23361;BME280;11852;50.082;18.554;2022-08-01T02:14:12;98372.5;;;14.86;88.23
23361;BME280;11852;50.082;18.554;2022-08-01T02:15:17;98369.0;;;14.86;88.13
23361;BME280;11852;50.082;18.554;2022-08-01T02:16:23;98369.0;;;14.87;88.04
23361;BME280;11852;50.082;18.554;2022-08-01T02:17:26;98367.01;;;14.88;88.01
23361;BME280;11852;50.082;18.554;2022-08-01T02:18:32;98365.0;;;14.86;88.07
23361;BME280;11852;50.082;18.554;2022-08-01T02:19:37;98367.01;;;14.86;88.07
23361;BME280;11852;50.082;18.554;2022-08-01T02:20:41;98366.0;;;14.85;87.79
23361;BME280;11852;50.082;18.554;2022-08-01T02:24:14;98365.5;;;14.78;88.08
23361;BME280;11852;50.082;18.554;2022-08-01T02:25:30;98366.0;;;14.72;88.24
23361;BME280;11852;50.082;18.554;2022-08-01T02:26:31;98366.0;;;14.73;88.28
23361;BME280;11852;50.082;18.554;2022-08-01T02:27:45;98367.51;;;14.73;88.2
23361;BME280;11852;50.082;18.554;2022-08-01T02:28:47;98368.0;;;14.73;88.26
23361;BME280;11852;50.082;18.554;2022-08-01T02:29:53;98367.5;;;14.7;88.31
23361;BME280;11852;50.082;18.554;2022-08-01T02:31:00;98368.01;;;14.63;88.45
23361;BME280;11852;50.082;18.554;2022-08-01T02:32:02;98369.0;;;14.62;88.45
23361;BME280;11852;50.082;18.554;2022-08-01T02:33:14;98367.5;;;14.72;88.21
23361;BME280;11852;50.082;18.554;2022-08-01T02:34:17;98366.5;;;14.69;88.29
23361;BME280;11852;50.082;18.554;2022-08-01T02:35:25;98369.0;;;14.58;88.44
23361;BME280;11852;50.082;18.554;2022-08-01T02:36:29;98366.5;;;14.65;88.13
23361;BME280;11852;50.082;18.554;2022-08-01T02:37:37;98366.0;;;14.65;88.15
23361;BME280;11852;50.082;18.554;2022-08-01T02:38:45;98366.5;;;14.66;88.09
23361;BME280;11852;50.082;18.554;2022-08-01T02:39:50;98369.0;;;14.66;88.16
23361;BME280;11852;50.082;18.554;2022-08-01T02:40:55;98363.5;;;14.63;88.26
23361;BME280;11852;50.082;18.554;2022-08-01T02:42:00;98365.0;;;14.65;88.15
23361;BME280;11852;50.082;18.554;2022-08-01T02:43:09;98365.0;;;14.65;88.15
23361;BME280;11852;50.082;18.554;2022-08-01T02:44:16;98365.5;;;14.64;88.28
23361;BME280;11852;50.082;18.554;2022-08-01T02:45:20;98367.5;;;14.59;88.37
23361;BME280;11852;50.082;18.554;2022-08-01T02:46:26;98366.0;;;14.59;88.37
23361;BME280;11852;50.082;18.554;2022-08-01T02:47:28;98366.0;;;14.57;88.37
23361;BME280;11852;50.082;18.554;2022-08-01T02:48:35;98365.0;;;14.57;88.37
23361;BME280;11852;50.082;18.554;2022-08-01T02:49:42;98366.5;;;14.72;87.82
23361;BME280;11852;50.082;18.554;2022-08-01T02:50:45;98366.5;;;14.74;87.71
23361;BME280;11852;50.082;18.554;2022-08-01T02:51:48;98366.5;;;14.74;87.71
23361;BME280;11852;50.082;18.554;2022-08-01T02:52:52;98367.51;;;14.73;87.71
23361;BME280;11852;50.082;18.554;2022-08-01T02:53:58;98367.51;;;14.73;87.71
23361;BME280;11852;50.082;18.554;2022-08-01T02:55:08;98366.5;;;14.71;87.67
23361;BME280;11852;50.082;18.554;2022-08-01T02:56:13;98362.0;;;14.72;87.58
23361;BME280;11852;50.082;18.554;2022-08-01T02:57:22;98365.0;;;14.73;87.51
23361;BME280;11852;50.082;18.554;2022-08-01T02:58:27;98365.5;;;14.73;87.51
23361;BME280;11852;50.082;18.554;2022-08-01T02:59:31;98363.5;;;14.73;87.51
23361;BME280;11852;50.082;18.554;2022-08-01T03:00:41;98361.5;;;14.72;87.43
23361;BME280;11852;50.082;18.554;2022-08-01T03:01:42;98358.0;;;14.71;87.41
23361;BME280;11852;50.082;18.554;2022-08-01T03:02:47;98360.0;;;14.7;87.41
23361;BME280;11852;50.082;18.554;2022-08-01T03:03:52;98359.5;;;14.7;87.41
23361;BME280;11852;50.082;18.554;2022-08-01T03:04:57;98362.0;;;14.64;87.44
23361;BME280;11852;50.082;18.554;2022-08-01T03:06:02;98365.5;;;14.61;87.57
23361;BME280;11852;50.082;18.554;2022-08-01T03:07:07;98364.5;;;14.57;87.77
23361;BME280;11852;50.082;18.554;2022-08-01T03:08:12;98365.0;;;14.56;87.84
23361;BME280;11852;50.082;18.554;2022-08-01T03:09:17;98364.0;;;14.55;87.82
23361;BME280;11852;50.082;18.554;2022-08-01T03:10:22;98366.0;;;14.56;87.82
23361;BME280;11852;50.082;18.554;2022-08-01T03:11:26;98365.5;;;14.55;87.82
23361;BME280;11852;50.082;18.554;2022-08-01T03:12:32;98365.0;;;14.55;87.83
23361;BME280;11852;50.082;18.554;2022-08-01T03:13:35;98366.0;;;14.53;87.81
23361;BME280;11852;50.082;18.554;2022-08-01T03:14:41;98365.5;;;14.53;87.81
23361;BME280;11852;50.082;18.554;2022-08-01T03:15:46;98363.5;;;14.53;87.81
23361;BME280;11852;50.082;18.554;2022-08-01T03:16:50;98366.0;;;14.53;87.81
23361;BME280;11852;50.082;18.554;2022-08-01T03:17:55;98365.5;;;14.53;87.81
23361;BME280;11852;50.082;18.554;2022-08-01T03:19:00;98365.0;;;14.55;87.65
23361;BME280;11852;50.082;18.554;2022-08-01T03:20:08;98365.0;;;14.54;87.69
23361;BME280;11852;50.082;18.554;2022-08-01T03:21:13;98367.0;;;14.48;87.84
23361;BME280;11852;50.082;18.554;2022-08-01T03:22:17;98369.5;;;14.46;88.04
23361;BME280;11852;50.082;18.554;2022-08-01T03:23:22;98371.5;;;14.42;88.22
23361;BME280;11852;50.082;18.554;2022-08-01T03:24:27;98372.0;;;14.41;88.18
23361;BME280;11852;50.082;18.554;2022-08-01T03:25:35;98371.0;;;14.24;88.77
23361;BME280;11852;50.082;18.554;2022-08-01T03:26:40;98372.5;;;14.26;88.66
23361;BME280;11852;50.082;18.554;2022-08-01T03:27:48;98376.0;;;14.32;88.51
23361;BME280;11852;50.082;18.554;2022-08-01T03:28:51;98375.0;;;14.41;88.34
23361;BME280;11852;50.082;18.554;2022-08-01T03:29:56;98375.5;;;14.41;88.34
23361;BME280;11852;50.082;18.554;2022-08-01T03:31:01;98378.0;;;14.41;88.34
23361;BME280;11852;50.082;18.554;2022-08-01T03:32:05;98375.0;;;14.41;88.34
23361;BME280;11852;50.082;18.554;2022-08-01T03:33:15;98376.0;;;14.45;87.9
23361;BME280;11852;50.082;18.554;2022-08-01T03:34:19;98375.0;;;14.38;88.03
23361;BME280;11852;50.082;18.554;2022-08-01T03:35:26;98374.5;;;14.38;88.03
23361;BME280;11852;50.082;18.554;2022-08-01T03:36:32;98373.5;;;14.39;88.03
23361;BME280;11852;50.082;18.554;2022-08-01T03:38:46;98372.5;;;14.5;87.94
23361;BME280;11852;50.082;18.554;2022-08-01T03:42:10;98371.5;;;14.41;88.36
23361;BME280;11852;50.082;18.554;2022-08-01T03:44:32;98368.01;;;14.51;87.88
23361;BME280;11852;50.082;18.554;2022-08-01T03:45:38;98370.49;;;14.39;88.32
23361;BME280;11852;50.082;18.554;2022-08-01T03:46:47;98369.0;;;14.48;88.18
23361;BME280;11852;50.082;18.554;2022-08-01T03:47:52;98369.5;;;14.45;88.14
23361;BME280;11852;50.082;18.554;2022-08-01T03:48:58;98367.01;;;14.47;88.01
23361;BME280;11852;50.082;18.554;2022-08-01T03:50:03;98368.0;;;14.44;88.13
23361;BME280;11852;50.082;18.554;2022-08-01T03:51:23;98370.5;;;14.49;88.03
23361;BME280;11852;50.082;18.554;2022-08-01T03:52:25;98368.5;;;14.49;87.99
23361;BME280;11852;50.082;18.554;2022-08-01T03:53:33;98369.5;;;14.45;88.07
23361;BME280;11852;50.082;18.554;2022-08-01T03:54:42;98375.0;;;14.49;88.04
23361;BME280;11852;50.082;18.554;2022-08-01T03:55:46;98373.0;;;14.47;88.18
23361;BME280;11852;50.082;18.554;2022-08-01T03:57:56;98376.5;;;14.51;88.01
23361;BME280;11852;50.082;18.554;2022-08-01T03:59:01;98377.0;;;14.51;87.99
23361;BME280;11852;50.082;18.554;2022-08-01T04:00:26;98375.5;;;14.55;87.93
23361;BME280;11852;50.082;18.554;2022-08-01T04:01:31;98374.0;;;14.56;87.89
23361;BME280;11852;50.082;18.554;2022-08-01T04:02:50;98374.5;;;14.57;87.92
23361;BME280;11852;50.082;18.554;2022-08-01T04:03:54;98374.5;;;14.6;87.9
23361;BME280;11852;50.082;18.554;2022-08-01T04:05:25;98374.5;;;14.62;87.89
23361;BME280;11852;50.082;18.554;2022-08-01T04:06:34;98374.0;;;14.57;87.96
23361;BME280;11852;50.082;18.554;2022-08-01T04:07:39;98372.5;;;14.6;87.83
23361;BME280;11852;50.082;18.554;2022-08-01T04:08:45;98371.5;;;14.65;87.82
23361;BME280;11852;50.082;18.554;2022-08-01T04:09:50;98374.5;;;14.7;87.83
23361;BME280;11852;50.082;18.554;2022-08-01T04:11:12;98376.5;;;14.69;87.95
23361;BME280;11852;50.082;18.554;2022-08-01T04:12:18;98379.0;;;14.7;87.85
23361;BME280;11852;50.082;18.554;2022-08-01T04:13:28;98377.0;;;14.72;87.83
23361;BME280;11852;50.082;18.554;2022-08-01T04:15:05;98380.01;;;14.77;87.81
23361;BME280;11852;50.082;18.554;2022-08-01T04:16:11;98380.01;;;14.78;87.83
23361;BME280;11852;50.082;18.554;2022-08-01T04:17:16;98380.01;;;14.81;87.91
23361;BME280;11852;50.082;18.554;2022-08-01T04:18:20;98377.5;;;14.82;87.88
23361;BME280;11852;50.082;18.554;2022-08-01T04:19:25;98380.01;;;14.7;87.96
23361;BME280;11852;50.082;18.554;2022-08-01T04:20:38;98380.01;;;14.59;88.31
23361;BME280;11852;50.082;18.554;2022-08-01T04:21:48;98376.0;;;14.66;88.1
23361;BME280;11852;50.082;18.554;2022-08-01T04:22:52;98376.0;;;14.66;88.13
23361;BME280;11852;50.082;18.554;2022-08-01T04:24:17;98374.5;;;14.66;88.19
23361;BME280;11852;50.082;18.554;2022-08-01T04:25:24;98373.5;;;14.68;88.15
23361;BME280;11852;50.082;18.554;2022-08-01T04:26:26;98376.0;;;14.69;88.16
23361;BME280;11852;50.082;18.554;2022-08-01T04:27:31;98378.0;;;14.64;88.4
23361;BME280;11852;50.082;18.554;2022-08-01T04:28:39;98379.0;;;14.66;88.43
23361;BME280;11852;50.082;18.554;2022-08-01T04:29:44;98379.51;;;14.7;88.23
23361;BME280;11852;50.082;18.554;2022-08-01T04:30:52;98380.01;;;14.74;88.25
23361;BME280;11852;50.082;18.554;2022-08-01T04:31:57;98382.5;;;14.69;88.31
23361;BME280;11852;50.082;18.554;2022-08-01T04:33:06;98382.5;;;14.65;88.53
23361;BME280;11852;50.082;18.554;2022-08-01T04:34:11;98381.5;;;14.66;88.53
23361;BME280;11852;50.082;18.554;2022-08-01T04:35:32;98380.01;;;14.66;88.53
23361;BME280;11852;50.082;18.554;2022-08-01T04:36:37;98381.0;;;14.66;88.53
23361;BME280;11852;50.082;18.554;2022-08-01T04:37:46;98382.0;;;14.66;88.53
23361;BME280;11852;50.082;18.554;2022-08-01T04:38:59;98383.0;;;14.67;88.53
23361;BME280;11852;50.082;18.554;2022-08-01T04:40:04;98383.5;;;14.68;88.53
23361;BME280;11852;50.082;18.554;2022-08-01T04:41:09;98383.5;;;14.68;88.53
23361;BME280;11852;50.082;18.554;2022-08-01T04:42:28;98383.0;;;14.68;88.53
23361;BME280;11852;50.082;18.554;2022-08-01T04:43:33;98384.5;;;14.77;88.19
23361;BME280;11852;50.082;18.554;2022-08-01T04:44:38;98384.5;;;14.81;88.21
23361;BME280;11852;50.082;18.554;2022-08-01T04:45:45;98385.0;;;14.82;88.21
23361;BME280;11852;50.082;18.554;2022-08-01T04:47:06;98385.0;;;14.64;88.56
23361;BME280;11852;50.082;18.554;2022-08-01T04:48:36;98383.0;;;14.69;88.57
23361;BME280;11852;50.082;18.554;2022-08-01T04:49:40;98386.5;;;14.64;88.97
23361;BME280;11852;50.082;18.554;2022-08-01T04:50:45;98384.0;;;14.72;88.71
23361;BME280;11852;50.082;18.554;2022-08-01T04:51:58;98387.5;;;14.72;88.88
23361;BME280;11852;50.082;18.554;2022-08-01T04:53:16;98385.5;;;14.73;88.88
23361;BME280;11852;50.082;18.554;2022-08-01T04:54:20;98386.5;;;14.73;88.88
23361;BME280;11852;50.082;18.554;2022-08-01T04:55:31;98385.0;;;14.74;88.88
23361;BME280;11852;50.082;18.554;2022-08-01T04:56:36;98385.5;;;14.76;88.88
23361;BME280;11852;50.082;18.554;2022-08-01T04:57:41;98380.01;;;14.84;88.51
23361;BME280;11852;50.082;18.554;2022-08-01T04:58:46;98379.0;;;14.81;88.67
23361;BME280;11852;50.082;18.554;2022-08-01T05:00:04;98379.0;;;14.82;88.67
23361;BME280;11852;50.082;18.554;2022-08-01T05:02:18;98378.0;;;14.85;88.65
23361;BME280;11852;50.082;18.554;2022-08-01T05:03:22;98380.5;;;14.86;88.65
23361;BME280;11852;50.082;18.554;2022-08-01T05:04:27;98379.51;;;14.88;88.65
23361;BME280;11852;50.082;18.554;2022-08-01T05:05:35;98381.01;;;14.79;88.76
23361;BME280;11852;50.082;18.554;2022-08-01T05:06:39;98378.0;;;14.9;88.36
23361;BME280;11852;50.082;18.554;2022-08-01T05:07:44;98375.0;;;14.89;88.57
23361;BME280;11852;50.082;18.554;2022-08-01T05:08:50;98376.0;;;14.93;88.54
23361;BME280;11852;50.082;18.554;2022-08-01T05:09:56;98373.5;;;14.97;88.59
23361;BME280;11852;50.082;18.554;2022-08-01T05:11:00;98373.5;;;14.99;88.53
23361;BME280;11852;50.082;18.554;2022-08-01T05:12:24;98370.0;;;15.01;88.53
23361;BME280;11852;50.082;18.554;2022-08-01T05:13:30;98372.0;;;15.0;88.65
23361;BME280;11852;50.082;18.554;2022-08-01T05:14:35;98370.0;;;15.1;88.32
23361;BME280;11852;50.082;18.554;2022-08-01T05:15:54;98371.5;;;15.11;88.3
23361;BME280;11852;50.082;18.554;2022-08-01T05:16:59;98374.0;;;15.11;88.35
23361;BME280;11852;50.082;18.554;2022-08-01T05:18:05;98376.0;;;15.13;88.51
23361;BME280;11852;50.082;18.554;2022-08-01T05:19:11;98375.5;;;15.27;88.19
23361;BME280;11852;50.082;18.554;2022-08-01T05:20:25;98375.5;;;15.28;88.18
23361;BME280;11852;50.082;18.554;2022-08-01T05:21:33;98376.5;;;15.29;88.18
23361;BME280;11852;50.082;18.554;2022-08-01T05:22:45;98379.5;;;15.31;88.18
23361;BME280;11852;50.082;18.554;2022-08-01T05:23:49;98376.0;;;15.31;88.18
23361;BME280;11852;50.082;18.554;2022-08-01T05:24:53;98376.5;;;15.32;88.18
23361;BME280;11852;50.082;18.554;2022-08-01T05:25:59;98377.0;;;15.34;88.18
23361;BME280;11852;50.082;18.554;2022-08-01T05:27:33;98376.0;;;15.34;88.18
23361;BME280;11852;50.082;18.554;2022-08-01T05:28:38;98375.5;;;15.36;88.18
23361;BME280;11852;50.082;18.554;2022-08-01T05:29:44;98376.0;;;15.56;87.88
23361;BME280;11852;50.082;18.554;2022-08-01T05:30:50;98373.0;;;15.65;87.78
23361;BME280;11852;50.082;18.554;2022-08-01T05:32:16;98374.0;;;15.6;88.29
23361;BME280;11852;50.082;18.554;2022-08-01T05:33:28;98378.5;;;15.67;88.28
23361;BME280;11852;50.082;18.554;2022-08-01T05:34:55;98379.51;;;15.69;88.1
23361;BME280;11852;50.082;18.554;2022-08-01T05:36:05;98379.0;;;15.67;88.38
23361;BME280;11852;50.082;18.554;2022-08-01T05:37:10;98378.5;;;15.68;88.38
23361;BME280;11852;50.082;18.554;2022-08-01T05:38:26;98379.51;;;15.78;87.98
23361;BME280;11852;50.082;18.554;2022-08-01T05:39:30;98380.5;;;15.89;87.8
23361;BME280;11852;50.082;18.554;2022-08-01T05:40:35;98383.5;;;15.94;87.94
23361;BME280;11852;50.082;18.554;2022-08-01T05:41:40;98388.0;;;15.99;87.99
23361;BME280;11852;50.082;18.554;2022-08-01T05:42:45;98383.0;;;15.91;88.39
23361;BME280;11852;50.082;18.554;2022-08-01T05:43:53;98383.5;;;15.99;87.82
23361;BME280;11852;50.082;18.554;2022-08-01T05:44:58;98382.5;;;16.08;87.81
23361;BME280;11852;50.082;18.554;2022-08-01T05:46:04;98387.0;;;16.15;87.78
23361;BME280;11852;50.082;18.554;2022-08-01T05:47:09;98385.5;;;16.11;88.01
23361;BME280;11852;50.082;18.554;2022-08-01T05:48:17;98388.5;;;16.14;87.93
23361;BME280;11852;50.082;18.554;2022-08-01T05:49:21;98388.0;;;15.98;88.29
23361;BME280;11852;50.082;18.554;2022-08-01T05:50:26;98387.0;;;16.03;88.04
23361;BME280;11852;50.082;18.554;2022-08-01T05:51:37;98387.5;;;16.15;87.74
23361;BME280;11852;50.082;18.554;2022-08-01T05:52:41;98388.5;;;16.18;87.74
23361;BME280;11852;50.082;18.554;2022-08-01T05:53:46;98388.5;;;16.19;88.09
23361;BME280;11852;50.082;18.554;2022-08-01T05:54:51;98386.5;;;16.2;88.07
23361;BME280;11852;50.082;18.554;2022-08-01T05:55:59;98389.0;;;16.33;87.84
23361;BME280;11852;50.082;18.554;2022-08-01T05:57:42;98387.5;;;16.58;87.7
23361;BME280;11852;50.082;18.554;2022-08-01T05:58:49;98386.5;;;16.61;87.7
23361;BME280;11852;50.082;18.554;2022-08-01T05:59:53;98386.5;;;16.7;87.46
23361;BME280;11852;50.082;18.554;2022-08-01T06:00:58;98388.5;;;16.7;87.77
23361;BME280;11852;50.082;18.554;2022-08-01T06:03:04;98388.0;;;16.85;87.17
23361;BME280;11852;50.082;18.554;2022-08-01T06:04:09;98386.5;;;16.88;87.17
23361;BME280;11852;50.082;18.554;2022-08-01T06:05:14;98393.0;;;16.84;87.28
23361;BME280;11852;50.082;18.554;2022-08-01T06:06:21;98388.0;;;16.92;86.99
23361;BME280;11852;50.082;18.554;2022-08-01T06:07:25;98388.5;;;16.99;86.91
23361;BME280;11852;50.082;18.554;2022-08-01T06:08:31;98388.5;;;16.88;87.29
23361;BME280;11852;50.082;18.554;2022-08-01T06:09:40;98387.0;;;16.92;86.98
23361;BME280;11852;50.082;18.554;2022-08-01T06:10:45;98388.5;;;17.06;86.68
23361;BME280;11852;50.082;18.554;2022-08-01T06:11:49;98388.5;;;17.16;86.74
23361;BME280;11852;50.082;18.554;2022-08-01T06:12:54;98391.5;;;17.28;86.54
23361;BME280;11852;50.082;18.554;2022-08-01T06:13:59;98392.0;;;17.33;86.54
23361;BME280;11852;50.082;18.554;2022-08-01T06:15:04;98392.5;;;17.33;86.68
23361;BME280;11852;50.082;18.554;2022-08-01T06:16:08;98395.0;;;17.38;86.45